FW5820 New Haven CT US current weather conditions

sailwx.info

Wind from 026 at 6 knots gusting 14

Air temperature 15.6° C
Dewpoint 8.1° C

Last reported at 2020-Oct-24 22:05 UTC.
Time now 2020-Oct-24 22:40 UTC

Location: N 41°18' W 072°56'.
View on Google Maps.

See reports from other nearby stations

  
Tides and Currents Weather Stations Pressure Air Temp Water Temp Dewpoint Dewpoint Depression Visibility Wind Speed Wind Dir Waves Ship Positions
date/time (UTC)wind fromknots sea level pressurealtimeterstation pressurevisibilityair tempwater tempwave heightnotes
2020-Oct-24 22:05 026 6 gusting 14 15.6
2020-Oct-24 21:55 037 7 gusting 13 15.6
2020-Oct-24 21:45 043 6 gusting 10 15.6
2020-Oct-24 21:35 032 6 gusting 12 16.1
2020-Oct-24 21:25 035 6 gusting 11 16.1
2020-Oct-24 21:15 034 6 gusting 13 16.1
2020-Oct-24 21:05 032 6 gusting 14 16.1
2020-Oct-24 20:55 028 10 gusting 15 16.1
2020-Oct-24 20:45 037 8 gusting 13 15.6
2020-Oct-24 20:35 034 9 gusting 18 15.6
2020-Oct-24 20:25 029 9 gusting 18 16.1
2020-Oct-24 20:15 029 11 gusting 18 15.6
2020-Oct-24 20:05 041 5 gusting 11 15.6
2020-Oct-24 19:55 046 6 gusting 13 15.6
2020-Oct-24 19:45 026 6 gusting 10 15.6
2020-Oct-24 19:35 036 6 gusting 13 15.6
2020-Oct-24 19:25 032 8 gusting 14 15.6
2020-Oct-24 19:15 037 9 gusting 13 15.6
2020-Oct-24 19:05 034 8 gusting 15 16.1
2020-Oct-24 18:55 029 10 gusting 21 17.2
2020-Oct-24 18:45 265 2 gusting 6 18.3
2020-Oct-24 18:35 278 2 gusting 4 18.3
2020-Oct-24 18:25 173 2 gusting 4 18.3
2020-Oct-24 18:15 147 1 gusting 2 18.3
2020-Oct-24 18:05 173 1 gusting 4 18.3
2020-Oct-24 17:55 150 1 gusting 4 18.3
2020-Oct-24 17:45 153 2 gusting 7 17.8
2020-Oct-24 17:35 158 3 gusting 6 17.8
2020-Oct-24 17:25 151 4 gusting 6 17.8
2020-Oct-24 17:15 151 2 gusting 6 17.8
2020-Oct-24 17:05 147 4 gusting 8 17.8
2020-Oct-24 16:55 140 3 gusting 8 17.8
2020-Oct-24 16:45 166 3 gusting 7 17.8
2020-Oct-24 16:35 170 4 gusting 9 17.8
2020-Oct-24 16:25 175 2 gusting 6 17.8
2020-Oct-24 16:15 151 5 gusting 9 17.8
2020-Oct-24 16:05 170 3 gusting 10 17.8
2020-Oct-24 15:55 172 4 gusting 11 17.8
2020-Oct-24 15:45 208 4 gusting 9 17.8
2020-Oct-24 15:35 152 4 gusting 7 17.2
2020-Oct-24 15:25 151 4 gusting 8 17.2
2020-Oct-24 15:15 160 4 gusting 8 17.2
2020-Oct-24 15:05 150 5 gusting 10 17.2
2020-Oct-24 14:55 161 6 gusting 10 17.2
2020-Oct-24 14:45 157 6 gusting 12 17.2
2020-Oct-24 14:35 165 4 gusting 10 17.8
2020-Oct-24 14:25 158 5 gusting 11 17.8
2020-Oct-24 14:15 153 4 gusting 8 17.2
2020-Oct-24 14:05 158 7 gusting 12 17.2
2020-Oct-24 13:55 162 4 gusting 7 17.2
2020-Oct-24 13:45 160 5 gusting 11 17.2
2020-Oct-24 13:35 160 4 gusting 6 17.2
2020-Oct-24 13:25 161 3 gusting 8 17.2
2020-Oct-24 13:15 164 5 gusting 8 17.2
2020-Oct-24 13:05 164 6 gusting 8 17.2
2020-Oct-24 12:55 157 3 gusting 7 17.2
2020-Oct-24 12:45 154 2 gusting 5 17.2
2020-Oct-24 12:35 158 3 gusting 8 17.2
2020-Oct-24 12:25 161 4 gusting 8 17.2
2020-Oct-24 12:15 154 4 gusting 7 17.2
2020-Oct-24 12:05 151 4 gusting 7 17.2
2020-Oct-24 11:55 155 3 gusting 6 17.2
2020-Oct-24 11:45 160 4 gusting 8 17.2
2020-Oct-24 11:35 160 3 gusting 8 16.7
2020-Oct-24 11:25 158 2 gusting 5 16.7
2020-Oct-24 11:15 157 3 gusting 5 16.7
2020-Oct-24 11:05 159 4 gusting 6 16.7
2020-Oct-24 10:55 159 3 gusting 6 16.7
2020-Oct-24 10:45 158 3 gusting 6 16.7
2020-Oct-24 10:35 165 3 gusting 6 16.7
2020-Oct-24 10:25 159 3 gusting 5 16.7
2020-Oct-24 10:15 159 3 gusting 6 16.7
2020-Oct-24 10:05 156 5 gusting 6 16.7
2020-Oct-24 09:55 157 5 gusting 6 16.7
2020-Oct-24 09:45 157 2 gusting 6 16.7
2020-Oct-24 09:35 161 3 gusting 9 16.7
2020-Oct-24 09:25 158 2 gusting 5 16.7
2020-Oct-24 09:15 158 2 gusting 6 16.7
2020-Oct-24 09:05 153 2 gusting 5 16.7
2020-Oct-24 08:55 156 2 gusting 7 16.7
2020-Oct-24 08:45 165 5 gusting 7 16.7
2020-Oct-24 08:35 159 5 gusting 7 16.1
2020-Oct-24 08:25 160 4 gusting 6 16.1
2020-Oct-24 08:15 157 4 gusting 6 16.1
2020-Oct-24 08:06 155 3 gusting 6 16.1
2020-Oct-24 07:55 165 4 gusting 7 16.1
2020-Oct-24 07:45 155 4 gusting 6 16.1
2020-Oct-24 07:35 159 3 gusting 6 16.1
2020-Oct-24 07:25 156 3 gusting 6 16.1
2020-Oct-24 07:15 153 4 gusting 7 16.1
2020-Oct-24 07:05 155 4 gusting 6 16.1
2020-Oct-24 06:55 148 3 gusting 6 16.1
2020-Oct-24 06:45 166 1 gusting 3 16.1
2020-Oct-24 06:35 158 1 gusting 4 16.1
2020-Oct-24 06:25 146 3 gusting 7 16.1
2020-Oct-24 06:15 146 3 gusting 5 16.1
2020-Oct-24 06:05 152 1 gusting 5 16.1
2020-Oct-24 05:55 164 0 gusting 6 16.1
2020-Oct-24 05:45 147 0 gusting 5 16.1
2020-Oct-24 05:35 144 2 gusting 4 16.1
2020-Oct-24 05:25 143 1 gusting 5 16.1
2020-Oct-24 05:15 145 1 gusting 5 16.1
2020-Oct-24 05:05 163 1 gusting 5 16.1
2020-Oct-24 04:55 146 2 gusting 4 16.1
2020-Oct-24 04:45 167 0 gusting 3 16.1
2020-Oct-24 04:35 166 0 gusting 2 16.1
2020-Oct-24 04:25 161 0 gusting 2 16.1
2020-Oct-24 04:15 154 1 gusting 3 16.1
2020-Oct-24 04:05 170 1 gusting 3 16.1
2020-Oct-24 03:55 161 2 gusting 4 16.1
2020-Oct-24 03:45 160 2 gusting 4 16.1
2020-Oct-24 03:35 170 0 gusting 4 16.1
2020-Oct-24 03:25 152 1 gusting 4 16.1
2020-Oct-24 03:15 157 2 gusting 6 16.1
2020-Oct-24 03:05 164 3 gusting 6 16.1
2020-Oct-24 02:55 160 2 gusting 5 16.1
2020-Oct-24 02:45 156 2 gusting 5 15.6
2020-Oct-24 02:35 156 2 gusting 6 15.6
2020-Oct-24 02:25 161 2 gusting 6 15.6
2020-Oct-24 02:15 157 3 gusting 8 15.6
2020-Oct-24 02:05 183 2 gusting 6 15.6
2020-Oct-24 01:55 156 4 gusting 9 15.6
2020-Oct-24 01:45 151 3 gusting 9 16.1
2020-Oct-24 01:35 155 3 gusting 7 16.1
2020-Oct-24 01:25 154 3 gusting 9 16.1
2020-Oct-24 01:15 153 2 gusting 6 16.1
2020-Oct-24 01:05 151 3 gusting 8 16.1
2020-Oct-24 00:55 149 4 gusting 7 16.1
2020-Oct-24 00:45 158 1 gusting 6 16.1
2020-Oct-24 00:35 155 1 gusting 5 16.1
2020-Oct-24 00:25 151 4 gusting 8 16.1
2020-Oct-24 00:15 145 3 gusting 6 16.1
2020-Oct-24 00:05 161 2 gusting 6 16.1
2020-Oct-23 23:55 150 2 gusting 6 16.1
2020-Oct-23 23:45 147 3 gusting 7 16.1
2020-Oct-23 23:35 144 3 gusting 7 16.1
2020-Oct-23 23:25 137 3 gusting 6 16.7
2020-Oct-23 23:15 143 1 gusting 6 16.7
2020-Oct-23 23:05 117 2 gusting 6 16.7
2020-Oct-23 22:55 105 2 gusting 6 16.7
2020-Oct-23 22:45 136 2 gusting 6 16.7
2020-Oct-23 22:35 136 3 gusting 6 16.7
2020-Oct-23 22:25 134 1 gusting 6 16.7
2020-Oct-23 22:15 131 2 gusting 5 16.7
2020-Oct-23 22:05 062 1 gusting 5 16.7
2020-Oct-23 21:55 123 1 gusting 5 16.7
2020-Oct-23 21:45 142 0 gusting 4 16.7
2020-Oct-23 21:35 098 1 gusting 4 16.7
2020-Oct-23 21:25 146 1 gusting 3 16.7
2020-Oct-23 21:15 113 1 gusting 2 16.7
2020-Oct-23 21:05 071 0 gusting 1 16.7
2020-Oct-23 20:55 090 1 gusting 3 16.7
2020-Oct-23 20:45 087 0 gusting 3 16.7
2020-Oct-23 20:35 147 1 gusting 5 16.7
2020-Oct-23 20:25 141 3 gusting 7 16.7
2020-Oct-23 20:15 142 3 gusting 6 16.7
2020-Oct-23 20:05 131 2 gusting 5 16.7
2020-Oct-23 19:55 135 2 gusting 6 16.7
2020-Oct-23 19:45 140 3 gusting 7 16.7
2020-Oct-23 19:35 149 4 gusting 6 17.2
2020-Oct-23 19:25 138 3 gusting 6 17.2
2020-Oct-23 19:15 110 1 gusting 6 17.2
2020-Oct-23 19:05 121 2 gusting 6 17.2
2020-Oct-23 18:55 152 3 gusting 7 17.2
2020-Oct-23 18:45 137 3 gusting 6 17.2
2020-Oct-23 18:35 134 3 gusting 7 17.2
2020-Oct-23 18:25 157 2 gusting 6 17.2
2020-Oct-23 18:15 144 4 gusting 6 17.2
2020-Oct-23 18:05 146 3 gusting 6 17.2
2020-Oct-23 17:55 145 3 gusting 6 17.2
2020-Oct-23 17:45 142 3 gusting 6 17.8
2020-Oct-23 17:35 153 3 gusting 7 17.8
2020-Oct-23 17:25 155 2 gusting 6 17.8
2020-Oct-23 17:15 150 2 gusting 5 17.8
2020-Oct-23 17:05 153 1 gusting 6 17.2
2020-Oct-23 16:55 144 2 gusting 4 17.2
2020-Oct-23 16:45 154 1 gusting 3 17.2
2020-Oct-23 16:35 115 0 gusting 2 17.2
2020-Oct-23 16:25 113 1 gusting 4 17.2
2020-Oct-23 16:15 145 2 gusting 4 17.8
2020-Oct-23 16:05 153 2 gusting 5 17.8
2020-Oct-23 15:55 144 1 gusting 5 17.2
2020-Oct-23 15:45 090 1 gusting 4 17.2
2020-Oct-23 15:35 090 1 gusting 5 16.7
2020-Oct-23 15:25 128 3 gusting 7 16.7
2020-Oct-23 15:15 092 4 gusting 8 16.7
2020-Oct-23 15:05 091 3 gusting 6 16.7
2020-Oct-23 14:55 130 2 gusting 8 17.2
2020-Oct-23 14:45 122 2 gusting 7 17.2
2020-Oct-23 14:35 124 2 gusting 6 17.2
2020-Oct-23 14:25 093 1 gusting 6 17.2
2020-Oct-23 14:15 139 5 gusting 8 17.2
2020-Oct-23 14:05 143 6 gusting 9 17.2
2020-Oct-23 13:55 143 4 gusting 9 17.2
2020-Oct-23 13:45 141 4 gusting 6 17.2
2020-Oct-23 13:35 116 1 gusting 6 17.2
2020-Oct-23 13:25 128 2 gusting 6 17.2
2020-Oct-23 13:15 079 2 gusting 6 17.2
2020-Oct-23 13:05 105 2 gusting 7 16.7
2020-Oct-23 12:55 102 2 gusting 6 16.7
2020-Oct-23 12:45 085 1 gusting 5 16.7
2020-Oct-23 12:35 065 4 gusting 9 16.7
2020-Oct-23 12:25 080 2 gusting 7 16.7
2020-Oct-23 12:15 106 2 gusting 8 17.2
2020-Oct-23 12:05 113 1 gusting 4 17.2
2020-Oct-23 11:55 091 1 gusting 3 17.2
2020-Oct-23 11:45 090 1 gusting 4 17.2
2020-Oct-23 11:35 099 0 gusting 3 17.2
2020-Oct-23 11:25 093 1 gusting 6 17.2
2020-Oct-23 11:15 072 1 gusting 4 17.2
2020-Oct-23 11:05 089 1 gusting 5 17.2
2020-Oct-23 10:55 101 0 gusting 2 17.2
2020-Oct-23 10:45 061 0 gusting 3 17.2
2020-Oct-23 10:35 208 17.2
2020-Oct-23 10:25 262 17.2
2020-Oct-23 10:15 060 17.2
2020-Oct-23 10:05 065 1 gusting 4 17.2
2020-Oct-23 09:55 060 1 gusting 4 17.2
2020-Oct-23 09:45 300 17.2
2020-Oct-23 09:35 130 17.2
2020-Oct-23 09:25 134 17.2
2020-Oct-23 09:15 136 17.2
2020-Oct-23 09:05 063 1 gusting 3 17.2
2020-Oct-23 08:55 317 17.2
2020-Oct-23 08:45 070 0 gusting 2 17.2
2020-Oct-23 08:35 206 17.2
2020-Oct-23 08:25 143 1 gusting 3 17.2
2020-Oct-23 08:15 090 17.2
2020-Oct-23 08:05 057 1 gusting 2 17.2
2020-Oct-23 07:55 071 0 gusting 2 17.2
2020-Oct-23 07:45 136 0 gusting 2 17.2
2020-Oct-23 07:35 232 17.2
2020-Oct-23 07:25 070 0 gusting 2 17.2
2020-Oct-23 07:15 141 17.2
2020-Oct-23 07:05 082 1 gusting 3 17.2
2020-Oct-23 06:55 125 0 gusting 2 17.8
2020-Oct-23 06:45 123 0 gusting 2 17.8
2020-Oct-23 06:35 163 17.8
2020-Oct-23 06:25 064 0 gusting 2 17.8
2020-Oct-23 06:15 148 0 gusting 3 17.8
2020-Oct-23 06:05 097 0 gusting 2 17.8
2020-Oct-23 05:55 124 1 gusting 3 17.8
2020-Oct-23 05:45 146 17.8
2020-Oct-23 05:35 143 2 gusting 5 18.3
2020-Oct-23 05:25 142 1 gusting 4 18.3
2020-Oct-23 05:15 144 1 gusting 6 18.3
2020-Oct-23 05:05 149 1 gusting 4 18.3
2020-Oct-23 04:55 180 0 gusting 3 18.9
2020-Oct-23 04:45 154 0 gusting 3 18.9
2020-Oct-23 04:35 155 0 gusting 2 18.9
2020-Oct-23 04:25 176 18.9
2020-Oct-23 04:15 154 18.9
2020-Oct-23 04:05 172 0 gusting 2 18.9
2020-Oct-23 03:55 221 0 gusting 1 18.9
2020-Oct-23 03:45 142 0 gusting 4 18.9
2020-Oct-23 03:35 148 1 gusting 4 19.4
2020-Oct-23 03:25 146 1 gusting 3 19.4
2020-Oct-23 03:15 216 19.4
2020-Oct-23 03:05 293 1 gusting 3 19.4
2020-Oct-23 02:55 007 0 gusting 3 19.4
2020-Oct-23 02:45 317 0 gusting 1 19.4
2020-Oct-23 02:35 264 0 gusting 2 19.4
2020-Oct-23 02:25 310 2 gusting 6 19.4
2020-Oct-23 02:15 284 3 gusting 6 19.4
2020-Oct-23 02:05 173 0 gusting 2 19.4
2020-Oct-23 01:55 168 1 gusting 4 19.4
2020-Oct-23 01:45 315 0 gusting 4 20.0
2020-Oct-23 01:35 275 2 gusting 5 20.0
2020-Oct-23 01:25 285 3 gusting 6 20.0
2020-Oct-23 01:15 270 3 gusting 6 20.0
2020-Oct-23 01:05 166 1 gusting 5 20.0
2020-Oct-23 00:55 154 2 gusting 5 20.0
2020-Oct-23 00:45 147 2 gusting 5 20.0
2020-Oct-23 00:35 161 3 gusting 6 20.0
2020-Oct-23 00:25 155 3 gusting 6 20.0
2020-Oct-23 00:15 165 1 gusting 4 20.0
2020-Oct-23 00:05 166 1 gusting 4 20.0
2020-Oct-22 23:55 149 4 gusting 6 20.0
2020-Oct-22 23:45 139 1 gusting 3 20.0
2020-Oct-22 23:35 138 1 gusting 5 20.0
2020-Oct-22 23:25 156 3 gusting 7 20.0
2020-Oct-22 23:15 176 2 gusting 5 20.0
2020-Oct-22 23:05 154 2 gusting 6 20.0
2020-Oct-22 22:55 155 1 gusting 5 19.4
2020-Oct-22 22:45 162 3 gusting 6 19.4
2020-Oct-22 22:35 155 2 gusting 5 19.4
2020-Oct-22 22:25 163 2 gusting 6 19.4
2020-Oct-22 22:15 158 3 gusting 6 20.0
2020-Oct-22 22:05 155 2 gusting 6 20.0